UTDK

Kulob Airport

Kulyab, Tajikistan
TAF UTDK 242100Z 2422/2507 03005MPS 6000 FEW066 SCT150
Issued Valid From Valid To
Sep-24 @ 21:00 UTC
(2 hours ago)
Sep-24 @ 22:00 UTC
(an hour ago)
Sep-25 @ 07:00 UTC
(in 8 hours)
Sep-24 @ 22:00 to Sep-25 @ 07:00
TAF UTDK 242100Z 2422/2507 03005MPS 6000 FEW066 SCT150
Wind Visibility Clouds
30° at 10 knots 6,003 meters
  • Few at 6,600' AGL
  • Scattered at 15,000' AGL
TAF UTDK 242100Z 2422/2507 03005MPS 6000 FEW066 SCT150
Issued Sep-24 @ 21:00 UTC
(2 hours ago)
Valid From Sep-24 @ 22:00 UTC
(an hour ago)
Valid To Sep-25 @ 07:00 UTC
(in 8 hours)
Sep-24 @ 22:00 - Sep-25 @ 07:00
Wind Visibility
30° at 10 knots 6,003 meters
Clouds
  • Few at 6,600' AGL
  • Scattered at 15,000' AGL